Terminal Aerodrome Forecast
Issued by NWS

Home | Current Version | Previous Version | Text Only | Print | Product List | Glossary On
Versions: 1 2 3 4 5 6 7 8 9 10 11 12 13 14 15 16 17 18 19 20 21 22
000
FTUS41 KPBZ 201100
TAFDUJ
TAF
KDUJ 201128Z 2012/2112 20003KT P6SM OVC200
     FM201400 21010KT P6SM BKN100
     FM202200 20008KT 6SM -SHRA OVC040
     FM210200 22005KT 5SM -SHRA OVC015=

USA.gov is the U.S. government's official web portal to all federal, state and local government web resources and services.